Time;durP1;ratioP1;P1;durP2;ratioP2;P2;SDS_P1;SDS_P2;PMS_P1;PMS_P2;Temp;Humidity;BMP_temperature;BMP_pressure;BME280_temperature;BME280_humidity;BME280_pressure;Samples;Min_cycle;Max_cycle;Signal;HPM_P1;HPM_P2
2022/05/31 00:02:20;;;;;;;2.95;1.40;;;10.70;99.90;;;;;;5016548;28;21003;-84
2022/05/31 00:04:49;;;;;;;2.80;1.70;;;10.70;99.90;;;;;;5017792;28;20394;-84
2022/05/31 00:07:17;;;;;;;4.60;1.70;;;10.70;99.90;;;;;;5016213;28;20436;-84
2022/05/31 00:09:46;;;;;;;2.97;1.13;;;10.80;99.90;;;;;;5015498;28;20399;-86
2022/05/31 00:12:14;;;;;;;2.65;1.52;;;10.70;99.90;;;;;;5016463;28;20400;-86
2022/05/31 00:14:43;;;;;;;3.37;1.53;;;10.60;99.90;;;;;;5008423;28;20426;-85
2022/05/31 00:17:11;;;;;;;2.67;1.70;;;10.60;99.90;;;;;;5020317;28;20391;-84
2022/05/31 00:19:39;;;;;;;2.90;1.20;;;10.60;99.90;;;;;;5018018;28;20400;-86
2022/05/31 00:22:22;;;;;;;2.40;1.00;;;10.60;99.90;;;;;;5017544;28;20414;-85
2022/05/31 00:24:50;;;;;;;2.70;1.10;;;10.50;99.90;;;;;;5024806;28;20488;-85
2022/05/31 00:27:23;;;;;;;2.50;1.23;;;10.60;99.90;;;;;;5017326;28;20881;-85
2022/05/31 00:29:51;;;;;;;6.53;1.80;;;10.60;99.90;;;;;;5015461;28;20456;-85
2022/05/31 00:32:27;;;;;;;1.80;1.10;;;10.50;99.90;;;;;;5015730;28;20943;-85
2022/05/31 00:34:59;;;;;;;2.00;1.00;;;10.50;99.90;;;;;;5018513;28;20892;-84
2022/05/31 00:37:27;;;;;;;1.30;0.80;;;10.50;99.90;;;;;;5009026;28;20390;-85
2022/05/31 00:39:55;;;;;;;0.90;0.70;;;10.40;99.90;;;;;;5019061;28;20417;-83
2022/05/31 00:42:23;;;;;;;2.55;0.80;;;10.40;99.90;;;;;;5018744;28;20411;-86
2022/05/31 00:44:51;;;;;;;1.52;0.80;;;10.40;99.90;;;;;;5019901;28;20408;-85
2022/05/31 00:47:28;;;;;;;1.90;0.80;;;10.40;99.90;;;;;;5015405;28;20484;-85
2022/05/31 00:50:10;;;;;;;0.88;0.70;;;10.40;99.90;;;;;;5011017;28;20908;-85
2022/05/31 00:52:51;;;;;;;3.80;0.80;;;10.40;99.90;;;;;;5014031;28;20442;-85
2022/05/31 00:55:42;;;;;;;2.10;0.60;;;10.40;99.90;;;;;;5018490;28;20398;-84
2022/05/31 00:58:34;;;;;;;1.90;0.70;;;10.30;99.90;;;;;;5024771;28;20406;-84
2022/05/31 01:01:09;;;;;;;0.70;0.40;;;10.30;99.90;;;;;;5009326;28;20384;-85
2022/05/31 01:03:41;;;;;;;1.67;0.60;;;10.30;99.90;;;;;;5020645;28;20407;-85
2022/05/31 01:06:10;;;;;;;0.80;0.68;;;10.30;99.90;;;;;;5011302;28;20555;-86
2022/05/31 01:08:44;;;;;;;3.00;0.70;;;10.30;99.90;;;;;;5013689;28;20409;-85
2022/05/31 01:11:38;;;;;;;2.20;1.00;;;10.40;99.90;;;;;;5001775;28;20453;-85
2022/05/31 01:14:13;;;;;;;1.73;1.00;;;10.30;99.90;;;;;;5019302;28;20395;-85
2022/05/31 01:17:12;;;;;;;2.70;0.70;;;10.30;99.90;;;;;;5011459;28;20403;-84
2022/05/31 01:20:04;;;;;;;1.20;0.50;;;10.20;99.90;;;;;;5015747;28;20993;-85
2022/05/31 01:22:40;;;;;;;1.02;0.40;;;10.10;99.90;;;;;;5005441;28;20411;-85
2022/05/31 01:25:46;;;;;;;1.08;0.50;;;10.20;99.90;;;;;;5014687;28;20506;-84
2022/05/31 01:28:38;;;;;;;0.37;0.37;;;10.20;99.90;;;;;;5008719;28;20407;-85
2022/05/31 01:31:32;;;;;;;0.40;0.40;;;10.20;99.90;;;;;;5046931;27;20425;-87
2022/05/31 01:34:07;;;;;;;0.30;0.30;;;10.00;99.90;;;;;;5019879;28;20385;-87
2022/05/31 01:36:49;;;;;;;1.08;0.40;;;10.10;99.90;;;;;;5017565;28;20387;-85
2022/05/31 01:39:42;;;;;;;1.00;0.38;;;10.10;99.90;;;;;;5017896;28;20429;-83
2022/05/31 01:42:26;;;;;;;0.80;0.40;;;10.20;99.90;;;;;;5017758;28;20395;-86
2022/05/31 01:45:05;;;;;;;0.80;0.20;;;10.10;99.90;;;;;;5014034;28;20399;-85
2022/05/31 01:47:34;;;;;;;1.93;0.40;;;10.10;99.90;;;;;;5024977;28;20418;-85
2022/05/31 01:50:08;;;;;;;0.55;0.40;;;10.20;99.90;;;;;;5022050;28;20394;-85
2022/05/31 01:52:36;;;;;;;0.90;0.30;;;10.00;99.90;;;;;;5003722;28;20502;-85
2022/05/31 01:55:05;;;;;;;0.40;0.30;;;10.10;99.90;;;;;;5053679;28;20459;-84
2022/05/31 01:57:35;;;;;;;0.30;0.30;;;10.10;99.90;;;;;;5051028;28;20499;-84
2022/05/31 02:00:08;;;;;;;0.50;0.30;;;10.20;99.90;;;;;;5025705;28;20569;-85
2022/05/31 02:02:47;;;;;;;0.40;0.28;;;10.20;99.90;;;;;;5023562;28;20417;-85
2022/05/31 02:05:15;;;;;;;0.80;0.30;;;10.10;99.90;;;;;;5025323;28;20468;-86
2022/05/31 02:07:53;;;;;;;0.52;0.35;;;10.20;99.90;;;;;;5057111;28;20407;-84
2022/05/31 02:10:21;;;;;;;0.45;0.30;;;10.10;99.90;;;;;;5019774;28;20456;-85
2022/05/31 02:12:50;;;;;;;1.00;0.30;;;10.00;99.90;;;;;;5022732;28;20391;-87
2022/05/31 02:15:23;;;;;;;0.20;0.20;;;10.00;99.90;;;;;;5019459;28;20399;-85
2022/05/31 02:18:12;;;;;;;0.30;0.20;;;10.00;99.90;;;;;;5008970;28;20393;-85
2022/05/31 02:20:46;;;;;;;0.30;0.30;;;9.90;99.90;;;;;;5020901;28;20394;-84
2022/05/31 02:23:14;;;;;;;0.40;0.30;;;10.00;99.90;;;;;;5019072;28;20811;-85
2022/05/31 02:25:41;;;;;;;0.70;0.20;;;10.10;99.90;;;;;;5021799;28;20399;-84
2022/05/31 02:28:09;;;;;;;0.20;0.20;;;10.10;99.90;;;;;;5007237;28;20413;-86
2022/05/31 02:30:37;;;;;;;0.50;0.30;;;10.00;99.90;;;;;;5021740;28;20380;-82
2022/05/31 02:33:05;;;;;;;1.23;0.20;;;10.00;99.90;;;;;;5018131;28;20403;-85
2022/05/31 02:35:32;;;;;;;0.50;0.20;;;10.00;99.90;;;;;;5021013;28;20433;-84
2022/05/31 02:38:00;;;;;;;0.20;0.20;;;10.00;99.90;;;;;;5020069;28;20429;-85
2022/05/31 02:40:28;;;;;;;0.20;0.20;;;9.90;99.90;;;;;;5022865;28;20390;-86
2022/05/31 02:42:55;;;;;;;0.38;0.20;;;10.00;99.90;;;;;;5033173;28;20460;-87
2022/05/31 02:45:23;;;;;;;0.20;0.20;;;9.90;99.90;;;;;;5015671;28;20400;-85
2022/05/31 02:47:53;;;;;;;0.20;0.20;;;9.90;99.90;;;;;;5019247;28;20897;-85
2022/05/31 02:50:21;;;;;;;0.20;0.20;;;9.80;99.90;;;;;;5020782;28;20411;-84
2022/05/31 02:52:48;;;;;;;0.23;0.20;;;9.90;99.90;;;;;;5016473;28;20458;-84
2022/05/31 02:55:17;;;;;;;0.30;0.20;;;9.90;99.90;;;;;;5020363;28;20406;-85
2022/05/31 02:58:10;;;;;;;0.75;0.20;;;9.80;99.90;;;;;;5005133;28;20400;-83
2022/05/31 03:00:58;;;;;;;0.43;0.20;;;9.70;99.90;;;;;;5018376;28;20413;-87
2022/05/31 03:03:44;;;;;;;0.20;0.20;;;9.70;99.90;;;;;;5023822;28;20407;-85
2022/05/31 03:06:46;;;;;;;0.10;0.10;;;9.70;99.90;;;;;;4992977;28;20766;-85
2022/05/31 03:09:16;;;;;;;0.30;0.20;;;9.80;99.90;;;;;;5042673;28;20407;-86
2022/05/31 03:11:45;;;;;;;0.20;0.13;;;9.70;99.90;;;;;;5057160;28;20406;-84
2022/05/31 03:14:30;;;;;;;0.50;0.10;;;9.70;99.90;;;;;;5021769;28;20437;-85
2022/05/31 03:17:15;;;;;;;0.20;0.20;;;9.60;99.90;;;;;;5022189;27;20456;-86
2022/05/31 03:20:19;;;;;;;0.20;0.20;;;9.70;99.90;;;;;;5017717;28;20398;-86
2022/05/31 03:22:51;;;;;;;0.40;0.10;;;9.70;99.90;;;;;;5051511;28;20411;-86
2022/05/31 03:25:24;;;;;;;0.30;0.20;;;9.70;99.90;;;;;;5051154;28;20408;-86
2022/05/31 03:27:56;;;;;;;0.28;0.10;;;9.70;99.90;;;;;;5058517;28;20402;-87
2022/05/31 03:30:24;;;;;;;0.20;0.20;;;9.70;99.90;;;;;;5020224;28;20403;-86
2022/05/31 03:32:53;;;;;;;0.90;0.28;;;9.60;99.90;;;;;;5016434;28;20397;-87
2022/05/31 03:35:20;;;;;;;0.20;0.20;;;9.60;99.90;;;;;;5019714;28;20430;-88
2022/05/31 03:37:49;;;;;;;0.93;0.30;;;9.60;99.90;;;;;;5017762;28;20402;-86
2022/05/31 03:43:20;;;;;;;0.90;0.50;;;9.70;99.90;;;;;;5026479;28;20394;-84
2022/05/31 03:46:15;;;;;;;0.45;0.38;;;9.70;99.90;;;;;;5042601;28;20395;-84
2022/05/31 03:49:04;;;;;;;0.43;0.40;;;9.70;99.90;;;;;;5016780;28;20415;-85
2022/05/31 03:51:42;;;;;;;0.30;0.30;;;9.60;99.90;;;;;;5021222;28;20802;-85
2022/05/31 03:54:21;;;;;;;0.60;0.57;;;9.60;99.90;;;;;;5023008;28;20880;-85
2022/05/31 03:57:06;;;;;;;0.80;0.40;;;9.60;99.90;;;;;;5021906;28;21035;-85
2022/05/31 03:59:39;;;;;;;0.50;0.50;;;9.70;99.90;;;;;;5021195;28;20412;-84
2022/05/31 04:02:07;;;;;;;0.50;0.50;;;9.70;99.90;;;;;;5030082;27;20407;-83
2022/05/31 04:04:37;;;;;;;0.67;0.50;;;9.60;99.90;;;;;;5024906;28;20405;-86
2022/05/31 04:07:05;;;;;;;0.53;0.40;;;9.60;99.90;;;;;;5020206;28;20422;-86
2022/05/31 04:09:34;;;;;;;0.40;0.40;;;9.60;99.90;;;;;;5003577;28;20893;-84
2022/05/31 04:12:05;;;;;;;0.60;0.47;;;9.60;99.90;;;;;;5020346;28;20430;-86
2022/05/31 04:14:53;;;;;;;0.52;0.50;;;9.60;99.90;;;;;;5014498;28;20407;-85
2022/05/31 04:17:21;;;;;;;0.50;0.40;;;9.70;99.90;;;;;;5016190;28;20747;-85
2022/05/31 04:19:49;;;;;;;0.93;0.60;;;9.60;99.90;;;;;;5015520;28;20422;-85
2022/05/31 04:22:17;;;;;;;0.40;0.40;;;9.60;99.90;;;;;;5015907;28;20905;-85
2022/05/31 04:24:46;;;;;;;1.10;0.50;;;9.70;99.90;;;;;;5017467;28;20416;-85
2022/05/31 04:27:32;;;;;;;0.90;0.50;;;9.60;99.90;;;;;;5014497;28;20847;-86
2022/05/31 04:30:20;;;;;;;0.90;0.40;;;9.50;99.90;;;;;;5015512;28;20402;-86
2022/05/31 04:33:06;;;;;;;0.82;0.57;;;9.50;99.90;;;;;;5015154;28;20413;-85
2022/05/31 04:35:36;;;;;;;0.73;0.50;;;9.50;99.90;;;;;;5018143;28;20479;-86
2022/05/31 04:38:04;;;;;;;0.50;0.40;;;9.50;99.90;;;;;;5018291;28;20407;-86
2022/05/31 04:40:44;;;;;;;0.40;0.40;;;9.50;99.90;;;;;;5013739;28;20737;-84
2022/05/31 04:43:18;;;;;;;1.08;0.50;;;9.50;99.90;;;;;;5020329;28;20424;-86
2022/05/31 04:45:46;;;;;;;0.35;0.35;;;9.60;99.90;;;;;;5014077;28;20858;-86
2022/05/31 04:48:27;;;;;;;0.50;0.35;;;9.50;99.90;;;;;;5011022;28;20415;-85
2022/05/31 04:50:55;;;;;;;0.40;0.40;;;9.40;99.90;;;;;;5020039;28;20409;-86
2022/05/31 04:53:29;;;;;;;0.30;0.30;;;9.40;99.90;;;;;;5018818;27;20459;-85
2022/05/31 04:56:21;;;;;;;0.75;0.40;;;9.40;99.90;;;;;;5000961;28;20408;-84
2022/05/31 04:58:52;;;;;;;0.43;0.30;;;9.40;99.90;;;;;;5019911;28;20409;-85
2022/05/31 05:01:22;;;;;;;1.02;0.30;;;9.40;99.90;;;;;;5023459;28;20771;-85
2022/05/31 05:03:54;;;;;;;0.90;0.30;;;9.40;99.90;;;;;;5054475;28;20399;-86
2022/05/31 05:06:32;;;;;;;0.40;0.40;;;9.40;99.90;;;;;;5008531;28;20403;-86
2022/05/31 05:09:00;;;;;;;1.02;0.50;;;9.30;99.90;;;;;;5011636;28;20439;-85
2022/05/31 05:11:30;;;;;;;0.40;0.35;;;9.40;99.90;;;;;;5021480;28;20405;-86
2022/05/31 05:14:07;;;;;;;0.60;0.50;;;9.30;99.90;;;;;;5048782;27;20411;-85
2022/05/31 05:16:55;;;;;;;0.47;0.32;;;9.30;99.90;;;;;;5016367;28;20414;-85
2022/05/31 05:19:25;;;;;;;0.82;0.40;;;9.40;99.90;;;;;;5014753;28;20407;-85
2022/05/31 05:21:58;;;;;;;0.90;0.38;;;9.40;99.90;;;;;;5017458;28;20416;-86
2022/05/31 05:24:27;;;;;;;1.30;0.50;;;9.40;99.90;;;;;;5015335;28;20424;-84
2022/05/31 05:27:13;;;;;;;0.73;0.45;;;9.40;99.90;;;;;;5021319;28;20381;-84
2022/05/31 05:32:46;;;;;;;1.60;0.40;;;9.40;99.90;;;;;;5022332;28;20407;-85
2022/05/31 05:35:26;;;;;;;0.38;0.38;;;9.20;99.90;;;;;;5049870;28;20466;-85
2022/05/31 05:38:14;;;;;;;1.50;0.40;;;9.20;99.90;;;;;;5010874;28;20498;-85
2022/05/31 05:41:07;;;;;;;1.35;0.75;;;9.20;99.90;;;;;;5006529;28;20446;-86
2022/05/31 05:43:55;;;;;;;0.57;0.43;;;9.20;99.90;;;;;;5020794;28;20419;-86
2022/05/31 05:46:26;;;;;;;0.50;0.50;;;9.10;99.90;;;;;;5022121;28;20405;-86
2022/05/31 05:48:55;;;;;;;1.23;0.80;;;9.10;99.90;;;;;;5019100;28;20410;-85
2022/05/31 05:51:29;;;;;;;4.10;1.00;;;9.10;99.90;;;;;;5019279;28;20399;-85
2022/05/31 05:54:15;;;;;;;1.20;1.05;;;9.10;99.90;;;;;;5015576;28;20388;-85
2022/05/31 05:57:01;;;;;;;1.20;0.90;;;9.10;99.90;;;;;;5019275;28;20405;-86
2022/05/31 05:59:47;;;;;;;1.25;0.73;;;9.10;99.90;;;;;;5024681;28;20380;-84
2022/05/31 06:03:11;;;;;;;1.00;0.70;;;9.10;99.90;;;;;;5039751;28;20396;-85
2022/05/31 06:06:07;;;;;;;1.20;1.00;;;9.10;99.90;;;;;;5041306;28;20474;-85
2022/05/31 06:08:47;;;;;;;1.13;0.77;;;9.00;99.90;;;;;;5005748;28;20786;-86
2022/05/31 06:11:25;;;;;;;0.88;0.80;;;9.00;99.90;;;;;;5020649;28;20756;-84
2022/05/31 06:14:15;;;;;;;1.23;0.70;;;9.10;99.90;;;;;;5036303;28;20460;-85
2022/05/31 06:16:47;;;;;;;1.27;0.70;;;9.10;99.90;;;;;;5016046;28;20396;-86
2022/05/31 06:19:21;;;;;;;1.05;0.95;;;9.00;99.90;;;;;;5020280;28;20391;-85
2022/05/31 06:21:51;;;;;;;1.40;0.90;;;9.00;99.90;;;;;;5028645;28;20476;-85
2022/05/31 06:24:33;;;;;;;1.45;0.98;;;9.00;99.90;;;;;;5022101;28;20421;-85
2022/05/31 06:27:20;;;;;;;2.50;1.00;;;9.00;99.90;;;;;;5020719;28;20406;-86
2022/05/31 06:29:48;;;;;;;2.40;1.30;;;8.90;99.90;;;;;;5015613;28;20407;-85
2022/05/31 06:32:16;;;;;;;1.10;0.80;;;9.00;99.90;;;;;;5018249;28;20768;-85
2022/05/31 06:34:46;;;;;;;1.40;0.70;;;8.90;99.90;;;;;;5017242;28;20498;-86
2022/05/31 06:37:31;;;;;;;1.50;0.68;;;9.00;99.90;;;;;;5025215;28;20722;-85
2022/05/31 06:40:05;;;;;;;1.75;0.50;;;8.90;99.90;;;;;;5020851;28;20451;-84
2022/05/31 06:42:51;;;;;;;1.10;0.50;;;8.80;99.90;;;;;;5022663;28;20421;-85
2022/05/31 06:45:38;;;;;;;1.30;0.60;;;8.80;99.90;;;;;;5017983;28;20564;-86
2022/05/31 06:48:27;;;;;;;1.67;0.60;;;8.90;99.90;;;;;;5011875;28;20410;-85
2022/05/31 06:56:48;;;;;;;0.77;0.60;;;8.80;99.90;;;;;;5024995;28;20394;-84
2022/05/31 06:57:35;;;;;;;0.70;0.57;;;8.90;99.90;;;;;;5020271;28;20404;-84
2022/05/31 07:00:32;;;;;;;1.63;0.60;;;8.90;99.90;;;;;;5043282;28;20397;-85
2022/05/31 07:03:02;;;;;;;0.60;0.50;;;8.90;99.90;;;;;;5021261;28;20427;-85
2022/05/31 07:05:38;;;;;;;1.30;0.53;;;8.90;99.90;;;;;;5016106;28;20408;-85
2022/05/31 07:08:15;;;;;;;0.85;0.50;;;8.90;99.90;;;;;;5018713;28;20762;-85
2022/05/31 07:11:00;;;;;;;0.55;0.55;;;8.90;99.90;;;;;;5022044;28;20383;-84
2022/05/31 07:13:49;;;;;;;0.70;0.60;;;8.90;99.90;;;;;;4999805;28;20384;-85
2022/05/31 07:16:23;;;;;;;0.65;0.50;;;9.00;99.90;;;;;;5013918;28;20834;-84
2022/05/31 07:19:10;;;;;;;0.63;0.50;;;9.00;99.90;;;;;;5016132;28;20500;-86
2022/05/31 07:21:43;;;;;;;0.50;0.50;;;9.10;99.90;;;;;;5011496;28;20462;-85
2022/05/31 07:24:11;;;;;;;0.60;0.50;;;9.10;99.90;;;;;;5017098;28;20398;-85
2022/05/31 07:27:06;;;;;;;0.50;0.50;;;9.20;99.90;;;;;;5037939;27;20399;-84
2022/05/31 07:29:33;;;;;;;1.80;0.50;;;9.20;99.90;;;;;;5017811;28;20482;-84
2022/05/31 07:32:01;;;;;;;0.50;0.43;;;9.20;99.90;;;;;;5015711;28;20391;-86
2022/05/31 07:34:50;;;;;;;2.30;0.70;;;9.20;99.90;;;;;;5017300;28;20888;-86
2022/05/31 07:37:19;;;;;;;1.07;0.47;;;9.20;99.90;;;;;;5014515;28;20396;-85
2022/05/31 07:39:48;;;;;;;0.50;0.40;;;9.30;99.90;;;;;;5018424;28;20426;-85
2022/05/31 07:42:17;;;;;;;0.40;0.40;;;9.30;99.90;;;;;;5022795;28;20413;-85
2022/05/31 07:44:51;;;;;;;0.60;0.50;;;9.30;99.90;;;;;;5021370;28;20405;-86
2022/05/31 07:47:19;;;;;;;0.53;0.40;;;9.30;99.90;;;;;;5056527;27;20496;-85
2022/05/31 07:49:47;;;;;;;1.67;0.60;;;9.30;99.90;;;;;;5024467;28;20405;-86
2022/05/31 07:52:39;;;;;;;2.10;0.40;;;9.30;99.90;;;;;;5022475;28;20419;-88
2022/05/31 07:55:27;;;;;;;2.25;0.40;;;9.30;99.90;;;;;;5024181;28;20459;-86
2022/05/31 07:58:32;;;;;;;2.30;0.40;;;9.30;99.90;;;;;;5020186;28;20685;-86
2022/05/31 08:01:13;;;;;;;1.27;0.40;;;9.40;99.90;;;;;;5018794;28;20444;-86
2022/05/31 08:03:44;;;;;;;1.10;0.38;;;9.50;99.90;;;;;;5052864;28;20403;-84
2022/05/31 08:06:15;;;;;;;0.30;0.30;;;9.50;99.90;;;;;;5020255;28;20394;-86
2022/05/31 08:08:44;;;;;;;0.32;0.30;;;9.60;99.90;;;;;;5021243;28;20548;-87
2022/05/31 08:11:15;;;;;;;0.40;0.33;;;9.60;99.90;;;;;;5020723;28;20425;-86
2022/05/31 08:13:45;;;;;;;0.98;0.50;;;9.60;99.90;;;;;;5016287;28;20912;-84
2022/05/31 08:16:14;;;;;;;0.90;0.50;;;9.60;99.90;;;;;;5016974;28;20407;-84
2022/05/31 08:18:43;;;;;;;2.38;0.70;;;9.60;99.90;;;;;;5018840;28;20489;-84
2022/05/31 08:21:14;;;;;;;2.97;0.47;;;9.70;99.90;;;;;;5016279;28;20834;-84
2022/05/31 08:23:42;;;;;;;1.63;0.40;;;9.70;99.90;;;;;;5015679;28;20476;-83
2022/05/31 08:26:11;;;;;;;0.93;0.50;;;9.70;99.90;;;;;;5016116;28;20399;-85
2022/05/31 08:28:39;;;;;;;1.30;0.50;;;9.70;99.90;;;;;;5015717;28;20431;-84
2022/05/31 08:31:10;;;;;;;1.00;0.47;;;9.70;99.90;;;;;;5016689;28;20474;-85
2022/05/31 08:33:40;;;;;;;1.45;0.55;;;9.70;99.90;;;;;;5014685;28;20399;-84
2022/05/31 08:36:08;;;;;;;0.63;0.50;;;9.70;99.90;;;;;;5020894;28;20433;-85
2022/05/31 08:38:36;;;;;;;3.85;0.60;;;9.70;99.90;;;;;;5023540;28;20449;-85
2022/05/31 08:41:27;;;;;;;1.05;0.60;;;9.70;99.90;;;;;;5009411;28;20395;-86
2022/05/31 08:44:30;;;;;;;1.33;0.60;;;9.70;99.90;;;;;;5015607;28;20886;-85
2022/05/31 08:47:24;;;;;;;1.33;0.67;;;9.70;99.90;;;;;;5015332;28;20398;-84
2022/05/31 08:53:17;;;;;;;1.15;0.80;;;9.70;99.90;;;;;;5017903;28;20403;-84
2022/05/31 08:59:01;;;;;;;1.08;0.90;;;9.60;99.90;;;;;;5017888;28;20904;-85
2022/05/31 09:01:34;;;;;;;1.90;1.00;;;9.60;99.90;;;;;;5011847;28;20476;-84
2022/05/31 09:04:21;;;;;;;1.27;1.00;;;9.60;99.90;;;;;;5022462;28;20402;-84
2022/05/31 09:06:51;;;;;;;2.47;1.10;;;9.60;99.90;;;;;;5018805;28;20382;-84
2022/05/31 09:09:31;;;;;;;1.17;0.90;;;9.50;99.90;;;;;;5014815;28;20408;-83
2022/05/31 09:12:09;;;;;;;1.50;1.17;;;9.60;99.90;;;;;;5020453;28;20435;-84
2022/05/31 09:14:44;;;;;;;1.63;1.15;;;9.60;99.90;;;;;;5019859;28;20429;-85
2022/05/31 09:17:19;;;;;;;3.10;1.63;;;9.60;99.90;;;;;;5017524;28;20762;-85
2022/05/31 09:20:02;;;;;;;2.85;1.38;;;9.70;99.90;;;;;;5018440;28;20909;-84
2022/05/31 09:22:31;;;;;;;1.50;1.03;;;9.80;99.90;;;;;;5014024;28;20439;-84
2022/05/31 09:25:00;;;;;;;2.42;1.30;;;9.80;99.90;;;;;;5019052;28;20441;-85
2022/05/31 09:27:48;;;;;;;2.60;1.38;;;9.80;99.90;;;;;;5009222;28;20444;-85
2022/05/31 09:30:28;;;;;;;2.40;1.60;;;9.90;99.90;;;;;;5008525;28;20407;-84
2022/05/31 09:33:07;;;;;;;2.15;1.45;;;9.90;99.90;;;;;;5023861;28;20494;-84
2022/05/31 09:35:59;;;;;;;2.05;1.50;;;10.10;99.90;;;;;;5016083;28;20403;-85
2022/05/31 09:38:59;;;;;;;3.78;1.60;;;10.30;99.90;;;;;;5018354;28;20393;-84
2022/05/31 09:41:42;;;;;;;3.53;1.92;;;10.40;99.90;;;;;;5021376;28;20414;-83
2022/05/31 09:44:12;;;;;;;3.78;2.08;;;10.50;99.90;;;;;;5024686;28;20863;-84
2022/05/31 09:46:44;;;;;;;3.58;1.55;;;10.50;99.90;;;;;;5016349;28;20403;-84
2022/05/31 09:49:22;;;;;;;1.98;1.60;;;10.50;99.90;;;;;;5013879;28;20474;-84
2022/05/31 09:51:51;;;;;;;1.63;1.50;;;10.50;99.90;;;;;;5011308;28;20981;-85
2022/05/31 09:57:28;;;;;;;3.63;1.70;;;10.50;99.90;;;;;;5023883;28;20920;-85
2022/05/31 10:00:20;;;;;;;2.75;1.98;;;10.50;99.90;;;;;;5019329;28;20422;-85
2022/05/31 10:02:58;;;;;;;4.72;2.30;;;10.50;99.90;;;;;;5019646;28;20407;-84
2022/05/31 10:05:27;;;;;;;4.45;2.15;;;10.50;99.90;;;;;;5019665;28;20484;-84
2022/05/31 10:07:54;;;;;;;4.65;2.47;;;10.50;99.90;;;;;;5025499;28;20459;-84
2022/05/31 10:10:24;;;;;;;2.78;2.20;;;10.50;99.90;;;;;;5020042;28;20899;-84
2022/05/31 10:13:01;;;;;;;3.10;2.20;;;10.60;99.90;;;;;;5019755;28;20385;-83
2022/05/31 10:15:38;;;;;;;2.78;1.98;;;10.60;99.90;;;;;;5024537;28;20381;-85
2022/05/31 10:18:08;;;;;;;3.30;2.28;;;10.60;99.90;;;;;;5022815;28;20398;-85
2022/05/31 10:20:37;;;;;;;4.10;2.08;;;10.60;99.90;;;;;;5020439;28;20390;-84
2022/05/31 10:23:11;;;;;;;4.57;2.05;;;10.60;99.90;;;;;;5016002;28;20447;-85
2022/05/31 10:25:59;;;;;;;2.60;1.80;;;10.50;99.90;;;;;;5017617;28;20899;-84
2022/05/31 10:29:12;;;;;;;4.18;2.20;;;10.50;99.90;;;;;;5006948;28;20414;-84
2022/05/31 10:31:55;;;;;;;2.83;1.83;;;10.60;99.90;;;;;;5035783;28;20862;-84
2022/05/31 10:34:44;;;;;;;3.92;2.10;;;10.70;99.90;;;;;;5021465;28;20391;-84
2022/05/31 10:37:32;;;;;;;3.70;2.03;;;10.80;99.90;;;;;;5025357;28;20745;-84
2022/05/31 10:40:16;;;;;;;2.30;2.10;;;10.80;99.90;;;;;;5021175;28;20462;-85
2022/05/31 10:42:49;;;;;;;3.15;2.00;;;10.80;99.90;;;;;;5021966;28;20418;-83
2022/05/31 10:45:24;;;;;;;3.00;2.10;;;10.80;99.90;;;;;;5018489;28;20541;-84
2022/05/31 10:47:56;;;;;;;2.50;2.00;;;10.80;99.90;;;;;;5021693;28;20435;-83
2022/05/31 10:51:13;;;;;;;3.05;2.20;;;10.80;99.90;;;;;;5019286;28;20581;-85
2022/05/31 10:53:59;;;;;;;4.82;2.42;;;10.70;99.90;;;;;;5042597;28;20497;-85
2022/05/31 10:56:28;;;;;;;4.68;2.20;;;10.60;99.90;;;;;;5017423;28;20493;-83
2022/05/31 10:59:00;;;;;;;3.50;2.53;;;10.60;99.90;;;;;;5019885;28;20395;-85
2022/05/31 11:02:18;;;;;;;3.63;2.38;;;10.60;99.90;;;;;;5019999;28;20500;-84
2022/05/31 11:04:59;;;;;;;4.80;2.67;;;10.60;99.90;;;;;;5030253;28;20432;-84
2022/05/31 11:13:55;;;;;;;4.55;2.50;;;10.80;99.90;;;;;;5018079;28;20885;-85
2022/05/31 11:16:56;;;;;;;5.07;2.75;;;11.10;99.90;;;;;;5023066;28;20407;-85
2022/05/31 11:19:42;;;;;;;3.60;3.03;;;11.10;99.90;;;;;;5022078;28;20407;-85
2022/05/31 11:22:18;;;;;;;3.70;2.70;;;11.20;99.90;;;;;;5022267;28;20403;-85
2022/05/31 11:25:17;;;;;;;4.50;3.40;;;11.20;99.90;;;;;;5020648;28;20936;-84
2022/05/31 11:27:56;;;;;;;4.43;2.92;;;11.30;99.90;;;;;;5014758;28;20394;-85
2022/05/31 11:31:13;;;;;;;4.80;2.90;;;11.30;99.90;;;;;;5014774;28;20410;-84
2022/05/31 11:34:17;;;;;;;4.22;2.35;;;11.40;99.90;;;;;;5021140;28;20404;-84
2022/05/31 11:37:01;;;;;;;5.40;2.60;;;11.40;99.90;;;;;;5020978;28;20405;-85
2022/05/31 11:39:44;;;;;;;5.95;3.10;;;11.40;99.90;;;;;;5019832;28;20403;-84
2022/05/31 11:42:37;;;;;;;5.28;2.60;;;11.40;99.90;;;;;;5015650;28;20434;-85
2022/05/31 11:45:13;;;;;;;4.65;3.13;;;11.30;99.90;;;;;;5017930;28;20456;-84
2022/05/31 11:47:59;;;;;;;4.20;2.70;;;11.20;99.90;;;;;;5020838;28;20927;-84
2022/05/31 11:50:57;;;;;;;3.95;2.33;;;11.20;99.90;;;;;;5019660;28;20496;-85
2022/05/31 11:53:49;;;;;;;3.75;2.70;;;11.20;99.90;;;;;;5014368;28;20431;-85
2022/05/31 11:56:22;;;;;;;4.03;2.90;;;11.20;99.90;;;;;;5014948;28;20396;-84
2022/05/31 11:58:56;;;;;;;5.43;3.38;;;11.20;99.90;;;;;;5019756;28;20413;-84
2022/05/31 12:01:40;;;;;;;4.67;2.80;;;11.20;99.90;;;;;;5012404;28;20411;-85
2022/05/31 12:04:39;;;;;;;4.90;2.90;;;11.30;99.90;;;;;;5011087;28;20439;-84
2022/05/31 12:07:24;;;;;;;5.53;3.05;;;11.30;99.90;;;;;;5012254;28;20387;-83
2022/05/31 12:10:06;;;;;;;5.63;2.92;;;11.40;99.90;;;;;;5015234;28;20418;-83
2022/05/31 12:12:35;;;;;;;3.50;2.63;;;11.50;99.90;;;;;;5012306;28;20418;-85
2022/05/31 12:15:10;;;;;;;3.40;2.40;;;11.50;99.90;;;;;;5024722;28;20505;-84
2022/05/31 12:17:58;;;;;;;3.73;2.63;;;11.60;99.90;;;;;;5013619;28;20398;-86
2022/05/31 12:21:02;;;;;;;4.10;2.20;;;11.90;99.90;;;;;;5013429;28;20747;-85
2022/05/31 12:23:34;;;;;;;3.25;2.47;;;12.10;99.90;;;;;;5015850;28;20497;-85
2022/05/31 12:26:05;;;;;;;5.90;2.17;;;12.20;99.90;;;;;;5042958;28;20448;-85
2022/05/31 12:29:07;;;;;;;2.70;1.90;;;12.20;99.90;;;;;;5010719;28;20413;-84
2022/05/31 12:31:37;;;;;;;3.22;2.08;;;12.00;99.90;;;;;;5016535;28;20408;-85
2022/05/31 12:34:14;;;;;;;4.35;2.10;;;12.00;99.90;;;;;;5016138;28;20974;-85
2022/05/31 12:37:01;;;;;;;3.53;2.05;;;11.90;99.90;;;;;;5022115;28;20470;-85
2022/05/31 12:39:32;;;;;;;4.57;2.00;;;11.90;99.90;;;;;;5016200;28;20460;-84
2022/05/31 12:42:13;;;;;;;3.65;2.03;;;11.80;99.90;;;;;;5013422;28;20403;-84
2022/05/31 12:44:48;;;;;;;4.13;2.10;;;11.70;99.90;;;;;;5019330;28;20849;-85
2022/05/31 12:47:17;;;;;;;3.95;2.00;;;11.70;99.90;;;;;;5019189;28;20478;-85
2022/05/31 12:49:57;;;;;;;3.58;2.20;;;11.60;99.90;;;;;;5011923;28;20448;-83
2022/05/31 12:54:59;;;;;;;3.78;2.00;;;11.60;99.90;;;;;;5014521;28;20410;-84
2022/05/31 13:00:35;;;;;;;3.63;1.97;;;11.40;99.90;;;;;;5046633;28;20907;-85
2022/05/31 13:03:24;;;;;;;2.90;2.00;;;11.50;99.90;;;;;;5007767;28;20413;-85
2022/05/31 13:06:07;;;;;;;3.42;2.25;;;11.60;99.90;;;;;;5017301;28;20457;-84
2022/05/31 13:08:59;;;;;;;4.05;1.60;;;11.70;99.90;;;;;;5012912;28;20410;-85
2022/05/31 13:20:33;;;;;;;3.03;1.60;;;11.80;99.90;;;;;;5023476;28;20393;-84
2022/05/31 13:23:08;;;;;;;1.92;1.50;;;11.90;99.90;;;;;;5017957;28;20828;-85
2022/05/31 13:25:46;;;;;;;3.65;1.80;;;12.30;99.90;;;;;;5018939;28;20740;-85
2022/05/31 13:28:36;;;;;;;3.97;1.50;;;12.50;99.90;;;;;;5010880;28;20387;-85
2022/05/31 13:31:19;;;;;;;2.75;1.50;;;12.80;99.90;;;;;;5015051;28;20407;-84
2022/05/31 13:34:09;;;;;;;3.17;1.85;;;12.70;99.90;;;;;;5014970;28;20456;-85
2022/05/31 13:36:47;;;;;;;2.10;1.60;;;12.80;99.90;;;;;;5014479;28;20408;-83
2022/05/31 13:39:18;;;;;;;2.45;1.60;;;13.20;99.90;;;;;;5020324;28;20794;-84
2022/05/31 13:41:51;;;;;;;2.78;1.67;;;13.20;99.90;;;;;;5012092;28;20765;-85
2022/05/31 13:44:22;;;;;;;3.60;1.70;;;13.20;99.90;;;;;;5008864;28;20423;-85
2022/05/31 13:46:51;;;;;;;3.72;1.67;;;13.20;99.90;;;;;;5009899;28;20421;-84
2022/05/31 13:49:27;;;;;;;2.27;1.70;;;13.20;99.90;;;;;;5016032;28;20893;-84
2022/05/31 13:51:57;;;;;;;4.90;2.10;;;13.20;99.90;;;;;;5017510;28;20418;-84
2022/05/31 13:54:38;;;;;;;3.43;1.83;;;13.10;99.90;;;;;;5013826;28;20386;-84
2022/05/31 13:57:06;;;;;;;2.83;1.95;;;13.00;99.90;;;;;;5015208;28;20470;-83
2022/05/31 13:59:55;;;;;;;2.50;1.90;;;12.90;99.90;;;;;;5015053;28;20423;-83
2022/05/31 14:02:48;;;;;;;3.43;1.73;;;12.90;99.90;;;;;;5015100;28;20413;-84
2022/05/31 14:05:38;;;;;;;3.33;2.25;;;12.90;99.90;;;;;;5015787;28;20403;-86
2022/05/31 14:08:10;;;;;;;4.18;2.00;;;13.30;99.90;;;;;;5011028;28;20409;-85
2022/05/31 14:10:48;;;;;;;4.80;2.00;;;13.50;99.90;;;;;;5014869;28;20403;-84
2022/05/31 14:13:27;;;;;;;4.00;2.10;;;13.50;99.90;;;;;;5020444;28;20502;-83
2022/05/31 14:16:08;;;;;;;3.03;2.00;;;13.60;99.90;;;;;;5020178;28;20447;-84
2022/05/31 14:18:41;;;;;;;3.47;2.28;;;13.70;99.90;;;;;;5014746;28;20400;-83
2022/05/31 14:21:11;;;;;;;4.35;2.10;;;13.60;99.90;;;;;;5021800;28;20863;-85
2022/05/31 14:23:40;;;;;;;2.80;2.00;;;13.80;99.90;;;;;;5013364;28;20407;-84
2022/05/31 14:26:09;;;;;;;2.70;1.80;;;13.90;99.90;;;;;;5007766;28;20403;-85
2022/05/31 14:28:36;;;;;;;1.90;1.58;;;14.00;99.90;;;;;;5010028;28;20413;-83
2022/05/31 14:31:08;;;;;;;2.92;1.80;;;14.10;99.90;;;;;;5020740;28;20444;-85